createdAt,value
2023-05-10T00:02:23.911Z,18.00
2023-05-10T00:05:52.052Z,17.90
2023-05-10T00:09:17.947Z,17.80
2023-05-10T00:12:43.748Z,17.70
2023-05-10T00:16:08.419Z,17.70
2023-05-10T00:19:33.488Z,17.50
2023-05-10T00:22:57.192Z,17.50
2023-05-10T00:26:21.579Z,17.40
2023-05-10T00:29:49.169Z,17.40
2023-05-10T00:33:13.382Z,17.30
2023-05-10T00:36:38.233Z,17.20
2023-05-10T00:40:01.960Z,17.20
2023-05-10T00:43:25.688Z,17.20
2023-05-10T00:46:50.482Z,17.10
2023-05-10T00:50:14.510Z,17.10
2023-05-10T00:53:39.681Z,17.10
2023-05-10T00:57:04.243Z,17.00
2023-05-10T01:00:27.952Z,17.10
2023-05-10T01:03:51.852Z,17.00
2023-05-10T01:07:15.355Z,17.00
2023-05-10T01:10:40.375Z,16.90
2023-05-10T01:14:05.763Z,16.90
2023-05-10T01:17:30.016Z,16.90
2023-05-10T01:21:13.214Z,16.80
2023-05-10T01:25:25.037Z,16.80
2023-05-10T01:29:17.324Z,16.80
2023-05-10T01:32:55.331Z,16.70
2023-05-10T01:36:28.955Z,16.70
2023-05-10T01:40:05.025Z,16.60
2023-05-10T01:43:39.204Z,16.60
2023-05-10T01:47:11.768Z,16.60
2023-05-10T01:50:41.802Z,16.60
2023-05-10T01:54:07.859Z,16.60
2023-05-10T01:57:37.845Z,16.50
2023-05-10T02:01:06.024Z,16.80
2023-05-10T02:04:30.491Z,16.50
2023-05-10T02:07:56.428Z,16.50
2023-05-10T02:11:23.040Z,16.50
2023-05-10T02:14:49.591Z,16.50
2023-05-10T02:18:15.424Z,16.50
2023-05-10T02:21:41.394Z,16.50
2023-05-10T02:25:09.960Z,16.70
2023-05-10T02:28:35.621Z,16.60
2023-05-10T02:32:01.722Z,16.60
2023-05-10T02:35:27.631Z,16.60
2023-05-10T02:38:54.728Z,16.70
2023-05-10T02:42:28.612Z,16.70
2023-05-10T02:45:52.428Z,16.70
2023-05-10T02:49:16.361Z,16.60
2023-05-10T02:52:46.399Z,16.60
2023-05-10T02:56:21.391Z,16.70
2023-05-10T02:59:46.371Z,16.70
2023-05-10T03:03:09.965Z,16.70
2023-05-10T03:06:34.035Z,16.70
2023-05-10T03:09:59.453Z,16.80
2023-05-10T03:13:37.268Z,16.70
2023-05-10T03:17:11.282Z,16.80
2023-05-10T03:20:44.256Z,16.80
2023-05-10T03:24:15.796Z,16.80
2023-05-10T03:27:45.220Z,16.80
2023-05-10T03:31:09.820Z,16.80
2023-05-10T03:34:35.171Z,16.80
2023-05-10T03:37:58.746Z,16.70
2023-05-10T03:41:22.628Z,16.70
2023-05-10T03:44:46.194Z,16.70
2023-05-10T03:48:09.840Z,16.70
2023-05-10T03:51:34.865Z,16.70
2023-05-10T03:54:58.421Z,16.70
2023-05-10T03:58:22.841Z,16.70
2023-05-10T04:01:46.467Z,16.70
2023-05-10T04:05:11.194Z,16.70
2023-05-10T04:08:36.149Z,16.70
2023-05-10T04:12:01.516Z,16.70
2023-05-10T04:15:25.336Z,16.70
2023-05-10T04:18:49.074Z,16.60
2023-05-10T04:22:12.534Z,16.60
2023-05-10T04:25:37.844Z,16.50
2023-05-10T04:29:01.388Z,16.50
2023-05-10T04:32:25.259Z,16.50
2023-05-10T04:35:48.749Z,16.50
2023-05-10T04:39:12.559Z,16.50
2023-05-10T04:42:37.436Z,16.50
2023-05-10T04:46:00.971Z,16.50
2023-05-10T04:49:24.526Z,16.50
2023-05-10T04:52:47.965Z,16.50
2023-05-10T04:56:11.456Z,16.50
2023-05-10T04:59:38.145Z,16.50
2023-05-10T05:03:01.892Z,16.60
2023-05-10T05:06:25.903Z,16.60
2023-05-10T05:09:49.354Z,16.60
2023-05-10T05:13:15.089Z,16.60
2023-05-10T05:16:39.968Z,16.70
2023-05-10T05:20:04.088Z,16.70
2023-05-10T05:23:27.913Z,16.90
2023-05-10T05:26:51.393Z,17.00
2023-05-10T05:30:15.353Z,17.20
2023-05-10T05:33:40.505Z,17.10
2023-05-10T05:37:04.150Z,17.20
2023-05-10T05:40:27.864Z,17.20
2023-05-10T05:43:51.330Z,17.20
2023-05-10T05:47:14.982Z,17.30
2023-05-10T05:50:39.823Z,17.30
2023-05-10T05:54:05.184Z,17.30
2023-05-10T05:57:28.789Z,17.40
2023-05-10T06:00:52.816Z,17.40
2023-05-10T06:04:16.602Z,17.40
2023-05-10T06:07:43.148Z,17.40
2023-05-10T06:11:06.784Z,17.50
2023-05-10T06:14:30.565Z,17.50
2023-05-10T06:17:54.156Z,17.60
2023-05-10T06:21:17.714Z,17.60
2023-05-10T06:24:42.588Z,17.70
2023-05-10T06:28:06.098Z,17.70
2023-05-10T06:31:29.628Z,17.80
2023-05-10T06:34:53.151Z,17.90
2023-05-10T06:38:16.705Z,17.90
2023-05-10T06:41:41.535Z,17.90
2023-05-10T06:45:06.273Z,18.00
2023-05-10T06:48:29.900Z,18.00
2023-05-10T06:51:53.468Z,18.00
2023-05-10T06:55:17.264Z,18.00
2023-05-10T06:58:42.865Z,18.00
2023-05-10T07:02:06.625Z,17.90
2023-05-10T07:05:30.451Z,17.90
2023-05-10T07:08:54.459Z,17.80
2023-05-10T07:12:18.166Z,17.80
2023-05-10T07:15:43.357Z,17.80
2023-05-10T07:19:07.343Z,17.80
2023-05-10T07:22:30.936Z,17.90
2023-05-10T07:25:54.457Z,17.90
2023-05-10T07:29:17.912Z,18.10
2023-05-10T07:32:43.595Z,18.20
2023-05-10T07:36:07.776Z,17.30
2023-05-10T07:39:31.283Z,18.60
2023-05-10T07:42:54.735Z,18.80
2023-05-10T07:46:18.292Z,19.20
2023-05-10T07:49:43.125Z,19.10
2023-05-10T07:53:06.643Z,19.30
2023-05-10T07:56:33.276Z,19.30
2023-05-10T07:59:57.049Z,19.40
2023-05-10T08:03:20.805Z,19.40
2023-05-10T08:06:45.823Z,19.30
2023-05-10T08:10:11.986Z,19.30
2023-05-10T08:13:35.778Z,19.30
2023-05-10T08:16:59.299Z,19.20
2023-05-10T08:20:23.023Z,19.10
2023-05-10T08:23:48.050Z,19.10
2023-05-10T08:27:11.564Z,19.00
2023-05-10T08:30:35.098Z,18.90
2023-05-10T08:33:58.578Z,18.90
2023-05-10T08:37:22.239Z,18.90
2023-05-10T08:40:48.224Z,18.80
2023-05-10T08:44:12.616Z,18.80
2023-05-10T08:47:40.710Z,18.80
2023-05-10T08:51:06.090Z,18.80
2023-05-10T08:54:29.968Z,18.80
2023-05-10T08:57:55.583Z,18.80
2023-05-10T09:01:20.416Z,18.80
2023-05-10T09:04:44.142Z,18.80
2023-05-10T09:08:09.859Z,18.90
2023-05-10T09:11:33.930Z,19.30
2023-05-10T09:15:02.140Z,19.10
2023-05-10T09:18:27.917Z,19.30
2023-05-10T09:21:51.696Z,19.40
2023-05-10T09:25:17.881Z,19.50
2023-05-10T09:28:54.672Z,19.60
2023-05-10T09:32:19.542Z,19.60
2023-05-10T09:35:43.818Z,19.60
2023-05-10T09:39:07.375Z,19.50
2023-05-10T09:42:30.877Z,19.40
2023-05-10T09:45:54.447Z,19.40
2023-05-10T09:49:19.353Z,19.40
2023-05-10T09:52:51.424Z,19.40
2023-05-10T09:56:15.276Z,19.50
2023-05-10T09:59:45.406Z,19.60
2023-05-10T10:03:16.332Z,19.80
2023-05-10T10:06:42.333Z,19.80
2023-05-10T10:10:12.339Z,19.90
2023-05-10T10:13:36.321Z,20.00
2023-05-10T10:20:30.451Z,20.10
2023-05-10T10:23:55.329Z,20.00
2023-05-10T10:27:29.052Z,20.00
2023-05-10T10:30:56.754Z,19.90
2023-05-10T10:34:29.419Z,19.80
2023-05-10T10:37:53.852Z,19.80
2023-05-10T10:41:36.310Z,19.80
2023-05-10T10:45:15.229Z,20.00
2023-05-10T10:48:39.098Z,20.10
2023-05-10T10:52:24.569Z,20.20
2023-05-10T10:55:49.574Z,20.20
2023-05-10T10:59:14.625Z,20.20
2023-05-10T11:02:49.034Z,20.10
2023-05-10T11:06:12.676Z,19.90
2023-05-10T11:09:42.303Z,19.80
2023-05-10T11:13:09.741Z,19.50
2023-05-10T11:16:44.654Z,19.40
2023-05-10T11:20:12.768Z,19.20
2023-05-10T11:23:52.482Z,19.10
2023-05-10T11:27:16.139Z,18.90
2023-05-10T11:30:41.712Z,18.80
2023-05-10T11:34:06.632Z,18.80
2023-05-10T11:37:33.269Z,18.80
2023-05-10T11:40:56.828Z,18.80
2023-05-10T11:44:20.705Z,18.80
2023-05-10T11:47:44.622Z,18.90
2023-05-10T11:51:10.947Z,19.00
2023-05-10T11:54:35.764Z,19.10
2023-05-10T11:58:04.274Z,19.30
2023-05-10T12:01:29.621Z,19.30
2023-05-10T12:04:54.013Z,19.30
2023-05-10T12:08:24.439Z,19.30
2023-05-10T12:11:47.940Z,19.20
2023-05-10T12:15:20.453Z,19.20
2023-05-10T12:18:44.298Z,19.10
2023-05-10T12:22:07.939Z,19.10
2023-05-10T12:25:35.330Z,19.10
2023-05-10T12:29:16.568Z,19.00
2023-05-10T12:32:41.794Z,19.10
2023-05-10T12:36:05.882Z,19.10
2023-05-10T12:39:41.885Z,19.20
2023-05-10T12:43:06.762Z,19.20
2023-05-10T12:46:30.509Z,19.40
2023-05-10T12:49:54.159Z,19.50
2023-05-10T12:53:18.440Z,19.60
2023-05-10T12:56:43.627Z,19.70
2023-05-10T13:00:10.884Z,19.70
2023-05-10T13:03:34.793Z,19.70
2023-05-10T13:06:59.891Z,19.70
2023-05-10T13:10:24.732Z,19.70
2023-05-10T13:13:48.238Z,19.70
2023-05-10T13:17:13.298Z,19.60
2023-05-10T13:20:36.930Z,19.60
2023-05-10T13:24:01.049Z,19.50
2023-05-10T13:27:24.942Z,19.40
2023-05-10T13:30:48.515Z,19.40
2023-05-10T13:34:13.431Z,19.30
2023-05-10T13:37:38.206Z,19.40
2023-05-10T13:41:01.764Z,19.50
2023-05-10T13:44:25.303Z,19.60
2023-05-10T13:47:48.974Z,19.80
2023-05-10T13:51:13.814Z,20.00
2023-05-10T13:54:37.989Z,20.10
2023-05-10T13:58:01.516Z,20.20
2023-05-10T14:01:25.194Z,20.20
2023-05-10T14:04:49.224Z,20.20
2023-05-10T14:08:15.583Z,20.30
2023-05-10T14:11:42.649Z,20.20
2023-05-10T14:15:07.736Z,20.20
2023-05-10T14:18:31.651Z,20.20
2023-05-10T14:21:55.237Z,20.20
2023-05-10T14:25:20.536Z,20.20
2023-05-10T14:28:44.234Z,20.20
2023-05-10T14:32:08.042Z,20.30
2023-05-10T14:35:32.960Z,20.30
2023-05-10T14:38:56.543Z,20.30
2023-05-10T14:42:21.500Z,20.40
2023-05-10T14:45:46.569Z,20.40
2023-05-10T14:49:10.170Z,20.50
2023-05-10T14:52:34.359Z,20.50
2023-05-10T14:55:58.362Z,20.50
2023-05-10T14:59:23.215Z,20.50
2023-05-10T15:02:47.145Z,20.50
2023-05-10T15:06:11.562Z,20.40
2023-05-10T15:09:35.069Z,20.40
2023-05-10T15:12:58.705Z,20.40
2023-05-10T15:16:23.678Z,20.50
2023-05-10T15:19:47.522Z,20.50
2023-05-10T15:23:10.984Z,20.60
2023-05-10T15:26:34.449Z,20.60
2023-05-10T15:29:57.941Z,20.60
2023-05-10T15:33:22.838Z,20.50
2023-05-10T15:36:47.025Z,20.50
2023-05-10T15:40:11.843Z,20.40
2023-05-10T15:43:35.267Z,20.40
2023-05-10T15:46:58.809Z,20.40
2023-05-10T15:50:23.682Z,20.40
2023-05-10T15:54:05.369Z,20.40
2023-05-10T15:57:31.045Z,20.50
2023-05-10T16:00:54.603Z,20.50
2023-05-10T16:04:18.150Z,20.50
2023-05-10T16:07:44.012Z,20.50
2023-05-10T16:11:09.207Z,20.40
2023-05-10T16:14:33.175Z,20.40
2023-05-10T16:17:56.793Z,20.30
2023-05-10T16:21:20.830Z,20.20
2023-05-10T16:24:45.764Z,20.20
2023-05-10T16:28:09.332Z,20.10
2023-05-10T16:31:33.191Z,20.00
2023-05-10T16:34:56.803Z,20.00
2023-05-10T16:38:21.543Z,20.00
2023-05-10T16:41:46.456Z,19.90
2023-05-10T16:45:11.011Z,19.90
2023-05-10T16:48:34.557Z,19.90
2023-05-10T16:51:58.227Z,19.90
2023-05-10T16:55:24.773Z,19.80
2023-05-10T16:58:51.242Z,19.80
2023-05-10T17:02:15.446Z,19.80
2023-05-10T17:05:38.934Z,19.80
2023-05-10T17:09:03.906Z,20.10
2023-05-10T17:12:27.507Z,19.90
2023-05-10T17:15:52.457Z,19.70
2023-05-10T17:19:16.099Z,19.60
2023-05-10T17:22:39.688Z,19.60
2023-05-10T17:26:05.825Z,19.60
2023-05-10T17:29:29.426Z,19.50
2023-05-10T17:32:54.440Z,19.50
2023-05-10T17:36:18.090Z,19.40
2023-05-10T17:39:41.560Z,19.30
2023-05-10T17:43:05.116Z,19.30
2023-05-10T17:46:28.628Z,19.20
2023-05-10T17:49:53.656Z,19.20
2023-05-10T17:53:17.308Z,19.10
2023-05-10T17:56:40.870Z,19.00
2023-05-10T18:00:06.481Z,18.90
2023-05-10T18:03:30.194Z,18.90
2023-05-10T18:07:01.145Z,19.40
2023-05-10T18:10:25.883Z,18.90
2023-05-10T18:13:50.578Z,18.80
2023-05-10T18:17:14.216Z,18.90
2023-05-10T18:20:38.228Z,18.90
2023-05-10T18:24:03.055Z,18.70
2023-05-10T18:27:26.705Z,18.60
2023-05-10T18:30:50.284Z,18.60
2023-05-10T18:34:13.824Z,18.50
2023-05-10T18:37:38.993Z,18.50
2023-05-10T18:41:04.083Z,18.40
2023-05-10T18:44:28.972Z,18.30
2023-05-10T18:47:52.468Z,18.30
2023-05-10T18:51:16.370Z,18.20
2023-05-10T18:54:39.933Z,18.10
2023-05-10T18:58:04.656Z,18.10
2023-05-10T19:01:28.186Z,18.00
2023-05-10T19:04:51.770Z,17.90
2023-05-10T19:08:15.440Z,17.90
2023-05-10T19:11:39.124Z,17.80
2023-05-10T19:15:04.253Z,17.80
2023-05-10T19:18:28.433Z,17.80
2023-05-10T19:21:52.031Z,17.70
2023-05-10T19:25:17.010Z,17.70
2023-05-10T19:28:41.996Z,17.60
2023-05-10T19:32:07.065Z,17.60
2023-05-10T19:35:30.608Z,17.50
2023-05-10T19:38:54.149Z,17.50
2023-05-10T19:42:19.356Z,17.50
2023-05-10T19:45:43.003Z,17.40
2023-05-10T19:49:08.007Z,17.50
2023-05-10T19:52:31.491Z,17.40
2023-05-10T19:55:56.168Z,17.50
2023-05-10T19:59:19.764Z,17.40
2023-05-10T20:02:43.380Z,17.40
2023-05-10T20:06:08.349Z,17.40
2023-05-10T20:09:31.917Z,17.40
2023-05-10T20:12:55.478Z,17.40
2023-05-10T20:16:19.059Z,17.40
2023-05-10T20:19:42.720Z,17.60
2023-05-10T20:23:07.665Z,17.40
2023-05-10T20:26:31.597Z,17.40
2023-05-10T20:29:55.129Z,17.40
2023-05-10T20:33:19.105Z,17.40
2023-05-10T20:36:42.782Z,17.40
2023-05-10T20:40:09.324Z,17.70
2023-05-10T20:43:33.132Z,17.40
2023-05-10T20:46:56.842Z,17.40
2023-05-10T20:50:20.554Z,17.40
2023-05-10T20:53:44.184Z,17.40
2023-05-10T20:57:09.055Z,17.30
2023-05-10T21:00:32.712Z,17.30
2023-05-10T21:03:56.321Z,17.20
2023-05-10T21:07:19.786Z,17.30
2023-05-10T21:10:43.278Z,17.20
2023-05-10T21:14:09.659Z,17.10
2023-05-10T21:17:33.686Z,17.10
2023-05-10T21:20:57.382Z,17.20
2023-05-10T21:24:21.170Z,17.10
2023-05-10T21:27:44.699Z,17.10
2023-05-10T21:31:09.779Z,17.10
2023-05-10T21:34:33.681Z,17.10
2023-05-10T21:37:57.433Z,17.00
2023-05-10T21:41:21.682Z,17.00
2023-05-10T21:44:45.264Z,17.00
2023-05-10T21:48:10.300Z,17.00
2023-05-10T21:51:33.800Z,17.00
2023-05-10T21:54:57.531Z,16.90
2023-05-10T21:58:21.107Z,16.90
2023-05-10T22:01:44.856Z,16.80
2023-05-10T22:05:10.755Z,16.80
2023-05-10T22:08:34.347Z,16.70
2023-05-10T22:11:57.930Z,16.70
2023-05-10T22:15:21.376Z,16.70
2023-05-10T22:18:45.419Z,16.70
2023-05-10T22:22:11.825Z,16.70
2023-05-10T22:25:35.500Z,16.60
2023-05-10T22:28:59.247Z,16.60
2023-05-10T22:32:22.886Z,16.60
2023-05-10T22:35:46.431Z,16.60
2023-05-10T22:39:11.703Z,16.50
2023-05-10T22:42:35.515Z,16.50
2023-05-10T22:45:59.443Z,16.50
2023-05-10T22:49:22.987Z,16.50
2023-05-10T22:52:46.557Z,16.60
2023-05-10T22:56:11.596Z,16.50
2023-05-10T22:59:35.167Z,16.40
2023-05-10T23:02:59.960Z,16.40
2023-05-10T23:06:23.525Z,16.40
2023-05-10T23:09:47.198Z,16.40
2023-05-10T23:13:12.731Z,16.50
2023-05-10T23:16:36.698Z,16.50
2023-05-10T23:20:00.347Z,16.50
2023-05-10T23:23:23.896Z,16.50
2023-05-10T23:26:47.401Z,16.40
2023-05-10T23:30:13.429Z,16.40
2023-05-10T23:33:37.161Z,16.40
2023-05-10T23:37:00.657Z,16.40
2023-05-10T23:40:24.130Z,16.40
2023-05-10T23:43:47.595Z,16.30
2023-05-10T23:47:12.441Z,16.30
2023-05-10T23:50:37.150Z,16.30
2023-05-10T23:54:00.652Z,16.30
2023-05-10T23:57:24.253Z,16.20
